sensor_id;sensor_type;location;lat;lon;timestamp;pressure;altitude;pressure_sealevel;temperature;humidity
19594;BME280;9944;48.240;16.478;2023-07-31T00:01:32;99626.75;;;18.91;68.16
19594;BME280;9944;48.240;16.478;2023-07-31T00:05:37;99634.00;;;18.89;67.65
19594;BME280;9944;48.240;16.478;2023-07-31T00:09:40;99623.66;;;18.80;67.40
19594;BME280;9944;48.240;16.478;2023-07-31T00:13:44;99620.31;;;18.75;67.21
19594;BME280;9944;48.240;16.478;2023-07-31T00:17:48;99623.09;;;18.72;67.02
19594;BME280;9944;48.240;16.478;2023-07-31T00:21:51;99625.91;;;18.68;66.73
19594;BME280;9944;48.240;16.478;2023-07-31T00:25:54;99629.63;;;18.64;66.47
19594;BME280;9944;48.240;16.478;2023-07-31T00:29:59;99635.06;;;18.61;66.34
19594;BME280;9944;48.240;16.478;2023-07-31T00:34:02;99635.19;;;18.58;65.92
19594;BME280;9944;48.240;16.478;2023-07-31T00:38:09;99634.38;;;18.56;65.76
19594;BME280;9944;48.240;16.478;2023-07-31T00:42:14;99629.81;;;18.58;65.89
19594;BME280;9944;48.240;16.478;2023-07-31T00:46:19;99628.09;;;18.57;66.00
19594;BME280;9944;48.240;16.478;2023-07-31T00:50:24;99619.25;;;18.55;66.19
19594;BME280;9944;48.240;16.478;2023-07-31T00:54:28;99630.09;;;18.52;66.00
19594;BME280;9944;48.240;16.478;2023-07-31T00:58:31;99632.81;;;18.50;65.75
19594;BME280;9944;48.240;16.478;2023-07-31T01:02:37;99630.19;;;18.49;65.55
19594;BME280;9944;48.240;16.478;2023-07-31T01:06:46;99632.00;;;18.48;65.90
19594;BME280;9944;48.240;16.478;2023-07-31T01:10:56;99631.19;;;18.46;66.12
19594;BME280;9944;48.240;16.478;2023-07-31T01:15:04;99632.19;;;18.44;66.14
19594;BME280;9944;48.240;16.478;2023-07-31T01:19:11;99631.22;;;18.45;66.08
19594;BME280;9944;48.240;16.478;2023-07-31T01:23:35;99637.53;;;18.44;66.12
19594;BME280;9944;48.240;16.478;2023-07-31T01:27:46;99642.97;;;18.41;66.15
19594;BME280;9944;48.240;16.478;2023-07-31T01:32:11;99645.72;;;18.39;66.41
19594;BME280;9944;48.240;16.478;2023-07-31T01:36:16;99639.63;;;18.36;66.65
19594;BME280;9944;48.240;16.478;2023-07-31T01:40:20;99638.00;;;18.31;66.51
19594;BME280;9944;48.240;16.478;2023-07-31T01:44:25;99636.34;;;18.27;66.67
19594;BME280;9944;48.240;16.478;2023-07-31T01:48:28;99633.88;;;18.23;66.91
19594;BME280;9944;48.240;16.478;2023-07-31T01:52:37;99633.25;;;18.16;67.01
19594;BME280;9944;48.240;16.478;2023-07-31T01:56:43;99644.03;;;18.13;66.96
19594;BME280;9944;48.240;16.478;2023-07-31T02:00:47;99642.41;;;18.09;67.23
19594;BME280;9944;48.240;16.478;2023-07-31T02:04:51;99642.53;;;18.06;67.25
19594;BME280;9944;48.240;16.478;2023-07-31T02:08:55;99652.41;;;18.04;67.38
19594;BME280;9944;48.240;16.478;2023-07-31T02:12:58;99651.66;;;18.00;67.51
19594;BME280;9944;48.240;16.478;2023-07-31T02:17:05;99659.66;;;18.00;67.80
19594;BME280;9944;48.240;16.478;2023-07-31T02:21:08;99655.28;;;17.98;67.78
19594;BME280;9944;48.240;16.478;2023-07-31T02:25:12;99659.88;;;17.94;67.82
19594;BME280;9944;48.240;16.478;2023-07-31T02:29:15;99659.00;;;17.93;67.93
19594;BME280;9944;48.240;16.478;2023-07-31T02:33:21;99661.72;;;17.92;68.01
19594;BME280;9944;48.240;16.478;2023-07-31T02:37:25;99667.19;;;17.89;68.08
19594;BME280;9944;48.240;16.478;2023-07-31T02:41:28;99668.16;;;17.86;67.96
19594;BME280;9944;48.240;16.478;2023-07-31T02:45:31;99676.28;;;17.83;67.89
19594;BME280;9944;48.240;16.478;2023-07-31T02:49:36;99676.38;;;17.80;67.75
19594;BME280;9944;48.240;16.478;2023-07-31T02:53:40;99671.22;;;17.75;67.69
19594;BME280;9944;48.240;16.478;2023-07-31T02:57:43;99673.06;;;17.72;67.51
19594;BME280;9944;48.240;16.478;2023-07-31T03:01:47;99682.06;;;17.69;67.58
19594;BME280;9944;48.240;16.478;2023-07-31T03:05:52;99671.44;;;17.68;67.67
19594;BME280;9944;48.240;16.478;2023-07-31T03:09:56;99684.81;;;17.68;67.67
19594;BME280;9944;48.240;16.478;2023-07-31T03:13:59;99685.66;;;17.68;67.66
19594;BME280;9944;48.240;16.478;2023-07-31T03:18:02;99687.41;;;17.69;67.60
19594;BME280;9944;48.240;16.478;2023-07-31T03:22:07;99684.91;;;17.65;67.69
19594;BME280;9944;48.240;16.478;2023-07-31T03:26:11;99692.97;;;17.63;67.70
19594;BME280;9944;48.240;16.478;2023-07-31T03:30:15;99686.81;;;17.61;67.61
19594;BME280;9944;48.240;16.478;2023-07-31T03:34:19;99688.63;;;17.61;67.73
19594;BME280;9944;48.240;16.478;2023-07-31T03:38:24;99686.84;;;17.60;67.74
19594;BME280;9944;48.240;16.478;2023-07-31T03:42:28;99696.72;;;17.57;67.94
19594;BME280;9944;48.240;16.478;2023-07-31T03:46:31;99693.13;;;17.59;67.87
19594;BME280;9944;48.240;16.478;2023-07-31T03:50:35;99703.00;;;17.56;67.99
19594;BME280;9944;48.240;16.478;2023-07-31T03:54:40;99703.16;;;17.52;67.89
19594;BME280;9944;48.240;16.478;2023-07-31T03:58:46;99709.34;;;17.52;68.09
19594;BME280;9944;48.240;16.478;2023-07-31T04:02:50;99705.72;;;17.55;68.21
19594;BME280;9944;48.240;16.478;2023-07-31T04:06:54;99712.69;;;17.59;68.08
19594;BME280;9944;48.240;16.478;2023-07-31T04:10:58;99714.50;;;17.59;68.18
19594;BME280;9944;48.240;16.478;2023-07-31T04:15:02;99706.38;;;17.62;68.31
19594;BME280;9944;48.240;16.478;2023-07-31T04:19:05;99709.97;;;17.61;68.18
19594;BME280;9944;48.240;16.478;2023-07-31T04:23:09;99709.06;;;17.62;68.40
19594;BME280;9944;48.240;16.478;2023-07-31T04:27:14;99696.47;;;17.65;68.31
19594;BME280;9944;48.240;16.478;2023-07-31T04:31:18;99691.75;;;17.72;68.27
19594;BME280;9944;48.240;16.478;2023-07-31T04:35:21;99688.13;;;17.76;68.06
19594;BME280;9944;48.240;16.478;2023-07-31T04:39:25;99692.59;;;17.75;67.57
19594;BME280;9944;48.240;16.478;2023-07-31T04:43:29;99691.66;;;17.77;67.29
19594;BME280;9944;48.240;16.478;2023-07-31T04:47:33;99695.09;;;17.80;66.90
19594;BME280;9944;48.240;16.478;2023-07-31T04:51:36;99697.66;;;17.83;66.97
19594;BME280;9944;48.240;16.478;2023-07-31T04:55:40;99702.88;;;17.86;66.93
19594;BME280;9944;48.240;16.478;2023-07-31T04:59:45;99705.31;;;17.92;67.00
19594;BME280;9944;48.240;16.478;2023-07-31T05:03:51;99698.13;;;17.94;67.04
19594;BME280;9944;48.240;16.478;2023-07-31T05:07:54;99705.97;;;17.99;67.12
19594;BME280;9944;48.240;16.478;2023-07-31T05:11:58;99706.75;;;18.03;67.59
19594;BME280;9944;48.240;16.478;2023-07-31T05:16:03;99704.88;;;18.05;67.70
19594;BME280;9944;48.240;16.478;2023-07-31T05:20:07;99710.13;;;18.08;67.55
19594;BME280;9944;48.240;16.478;2023-07-31T05:24:11;99709.91;;;18.14;67.74
19594;BME280;9944;48.240;16.478;2023-07-31T05:28:15;99711.31;;;18.24;67.25
19594;BME280;9944;48.240;16.478;2023-07-31T05:32:19;99707.38;;;18.35;67.26
19594;BME280;9944;48.240;16.478;2023-07-31T05:36:23;99720.41;;;18.44;66.81
19594;BME280;9944;48.240;16.478;2023-07-31T05:40:27;99718.53;;;18.46;65.64
19594;BME280;9944;48.240;16.478;2023-07-31T05:44:30;99717.72;;;18.44;65.06
19594;BME280;9944;48.240;16.478;2023-07-31T05:48:35;99726.44;;;18.49;65.09
19594;BME280;9944;48.240;16.478;2023-07-31T05:52:38;99720.72;;;18.58;64.98
19594;BME280;9944;48.240;16.478;2023-07-31T05:56:42;99718.56;;;18.69;65.17
19594;BME280;9944;48.240;16.478;2023-07-31T06:00:46;99717.09;;;18.84;64.79
19594;BME280;9944;48.240;16.478;2023-07-31T06:04:51;99712.00;;;19.00;64.12
19594;BME280;9944;48.240;16.478;2023-07-31T06:08:55;99718.47;;;19.17;63.50
19594;BME280;9944;48.240;16.478;2023-07-31T06:12:58;99710.56;;;19.36;63.09
19594;BME280;9944;48.240;16.478;2023-07-31T06:17:02;99716.94;;;19.55;62.16
19594;BME280;9944;48.240;16.478;2023-07-31T06:21:07;99713.72;;;19.68;61.49
19594;BME280;9944;48.240;16.478;2023-07-31T06:25:11;99717.81;;;19.76;60.65
19594;BME280;9944;48.240;16.478;2023-07-31T06:29:18;99715.81;;;19.81;59.02
19594;BME280;9944;48.240;16.478;2023-07-31T06:33:21;99715.81;;;19.81;58.83
19594;BME280;9944;48.240;16.478;2023-07-31T06:37:25;99713.94;;;19.84;58.20
19594;BME280;9944;48.240;16.478;2023-07-31T06:41:29;99713.81;;;19.87;58.59
19594;BME280;9944;48.240;16.478;2023-07-31T06:45:33;99713.25;;;19.99;59.21
19594;BME280;9944;48.240;16.478;2023-07-31T06:49:37;99717.22;;;20.11;58.71
19594;BME280;9944;48.240;16.478;2023-07-31T06:53:42;99708.81;;;20.18;57.89
19594;BME280;9944;48.240;16.478;2023-07-31T06:57:47;99714.53;;;20.31;58.32
19594;BME280;9944;48.240;16.478;2023-07-31T07:01:51;99709.22;;;20.50;57.57
19594;BME280;9944;48.240;16.478;2023-07-31T07:05:54;99704.19;;;20.62;57.08
19594;BME280;9944;48.240;16.478;2023-07-31T07:09:59;99713.50;;;20.73;54.11
19594;BME280;9944;48.240;16.478;2023-07-31T07:14:03;99710.59;;;20.78;52.42
19594;BME280;9944;48.240;16.478;2023-07-31T07:18:06;99713.88;;;20.85;54.03
19594;BME280;9944;48.240;16.478;2023-07-31T07:22:11;99701.81;;;20.93;53.59
19594;BME280;9944;48.240;16.478;2023-07-31T07:26:15;99712.78;;;21.08;53.05
19594;BME280;9944;48.240;16.478;2023-07-31T07:30:19;99704.97;;;21.21;52.14
19594;BME280;9944;48.240;16.478;2023-07-31T07:34:25;99703.00;;;21.24;51.09
19594;BME280;9944;48.240;16.478;2023-07-31T07:38:29;99694.75;;;21.29;50.10
19594;BME280;9944;48.240;16.478;2023-07-31T07:42:34;99692.78;;;21.33;48.83
19594;BME280;9944;48.240;16.478;2023-07-31T07:46:37;99690.72;;;21.38;49.82
19594;BME280;9944;48.240;16.478;2023-07-31T07:50:41;99686.47;;;21.51;49.39
19594;BME280;9944;48.240;16.478;2023-07-31T07:54:45;99684.03;;;21.64;49.91
19594;BME280;9944;48.240;16.478;2023-07-31T07:58:50;99687.97;;;21.74;49.47
19594;BME280;9944;48.240;16.478;2023-07-31T08:02:53;99685.81;;;21.82;46.42
19594;BME280;9944;48.240;16.478;2023-07-31T08:06:59;99689.81;;;21.91;48.83
19594;BME280;9944;48.240;16.478;2023-07-31T08:11:03;99692.47;;;22.09;48.93
19594;BME280;9944;48.240;16.478;2023-07-31T08:15:08;99684.00;;;22.16;48.94
19594;BME280;9944;48.240;16.478;2023-07-31T08:19:12;99682.63;;;22.25;49.08
19594;BME280;9944;48.240;16.478;2023-07-31T08:23:16;99691.78;;;22.38;48.28
19594;BME280;9944;48.240;16.478;2023-07-31T08:27:19;99691.38;;;22.46;48.45
19594;BME280;9944;48.240;16.478;2023-07-31T08:31:25;99686.00;;;22.46;47.07
19594;BME280;9944;48.240;16.478;2023-07-31T08:35:29;99700.94;;;22.52;47.32
19594;BME280;9944;48.240;16.478;2023-07-31T08:39:32;99691.88;;;22.53;46.99
19594;BME280;9944;48.240;16.478;2023-07-31T08:43:36;99693.78;;;22.51;46.06
19594;BME280;9944;48.240;16.478;2023-07-31T08:47:44;99682.94;;;22.52;46.97
19594;BME280;9944;48.240;16.478;2023-07-31T08:51:49;99684.47;;;22.58;46.35
19594;BME280;9944;48.240;16.478;2023-07-31T08:55:53;99679.38;;;22.69;46.87
19594;BME280;9944;48.240;16.478;2023-07-31T08:59:58;99671.13;;;22.72;46.44
19594;BME280;9944;48.240;16.478;2023-07-31T09:04:04;99675.13;;;22.81;46.14
19594;BME280;9944;48.240;16.478;2023-07-31T09:08:09;99654.19;;;22.86;46.13
19594;BME280;9944;48.240;16.478;2023-07-31T09:12:12;99656.50;;;22.92;45.17
19594;BME280;9944;48.240;16.478;2023-07-31T09:16:16;99658.50;;;22.89;44.92
19594;BME280;9944;48.240;16.478;2023-07-31T09:20:21;99651.41;;;22.88;44.09
19594;BME280;9944;48.240;16.478;2023-07-31T09:24:25;99658.59;;;22.87;45.16
19594;BME280;9944;48.240;16.478;2023-07-31T09:28:31;99666.78;;;23.02;45.62
19594;BME280;9944;48.240;16.478;2023-07-31T09:32:35;99666.06;;;23.14;44.48
19594;BME280;9944;48.240;16.478;2023-07-31T09:36:42;99652.50;;;23.15;44.72
19594;BME280;9944;48.240;16.478;2023-07-31T09:40:47;99655.47;;;23.27;44.32
19594;BME280;9944;48.240;16.478;2023-07-31T09:44:51;99645.88;;;23.37;43.18
19594;BME280;9944;48.240;16.478;2023-07-31T09:49:06;99641.69;;;23.47;42.94
19594;BME280;9944;48.240;16.478;2023-07-31T09:53:12;99626.69;;;23.58;42.44
19594;BME280;9944;48.240;16.478;2023-07-31T09:57:17;99634.13;;;23.68;42.07
19594;BME280;9944;48.240;16.478;2023-07-31T10:01:21;99627.59;;;23.87;41.97
19594;BME280;9944;48.240;16.478;2023-07-31T10:05:30;99622.81;;;23.92;41.47
19594;BME280;9944;48.240;16.478;2023-07-31T10:09:36;99628.41;;;24.03;40.44
19594;BME280;9944;48.240;16.478;2023-07-31T10:13:41;99611.19;;;24.06;40.35
19594;BME280;9944;48.240;16.478;2023-07-31T10:17:47;99616.94;;;24.14;40.57
19594;BME280;9944;48.240;16.478;2023-07-31T10:21:51;99608.28;;;24.23;40.62
19594;BME280;9944;48.240;16.478;2023-07-31T10:25:57;99604.41;;;24.27;40.45
19594;BME280;9944;48.240;16.478;2023-07-31T10:30:03;99600.34;;;24.35;40.71
19594;BME280;9944;48.240;16.478;2023-07-31T10:34:09;99586.09;;;24.33;40.84
19594;BME280;9944;48.240;16.478;2023-07-31T10:38:12;99586.16;;;24.45;41.60
19594;BME280;9944;48.240;16.478;2023-07-31T10:42:17;99586.06;;;24.61;41.84
19594;BME280;9944;48.240;16.478;2023-07-31T10:46:22;99580.81;;;24.73;41.62
19594;BME280;9944;48.240;16.478;2023-07-31T10:50:26;99574.91;;;24.80;41.63
19594;BME280;9944;48.240;16.478;2023-07-31T10:54:29;99576.47;;;24.97;41.27
19594;BME280;9944;48.240;16.478;2023-07-31T10:58:36;99568.19;;;25.00;40.59
19594;BME280;9944;48.240;16.478;2023-07-31T11:02:40;99557.28;;;25.02;40.75
19594;BME280;9944;48.240;16.478;2023-07-31T11:06:55;99549.72;;;25.07;40.72
19594;BME280;9944;48.240;16.478;2023-07-31T11:11:07;99551.47;;;25.21;40.67
19594;BME280;9944;48.240;16.478;2023-07-31T11:15:12;99544.03;;;25.24;40.53
19594;BME280;9944;48.240;16.478;2023-07-31T11:19:21;99532.50;;;25.35;40.45
19594;BME280;9944;48.240;16.478;2023-07-31T11:23:25;99531.19;;;25.41;40.17
19594;BME280;9944;48.240;16.478;2023-07-31T11:27:29;99519.75;;;25.37;39.60
19594;BME280;9944;48.240;16.478;2023-07-31T11:31:34;99516.94;;;25.52;39.98
19594;BME280;9944;48.240;16.478;2023-07-31T11:35:46;99508.50;;;25.56;39.33
19594;BME280;9944;48.240;16.478;2023-07-31T11:40:00;99510.03;;;25.60;39.53
19594;BME280;9944;48.240;16.478;2023-07-31T11:44:04;99503.09;;;25.69;39.59
19594;BME280;9944;48.240;16.478;2023-07-31T11:48:30;99500.47;;;25.80;39.42
19594;BME280;9944;48.240;16.478;2023-07-31T11:52:37;99490.41;;;25.83;39.22
19594;BME280;9944;48.240;16.478;2023-07-31T11:56:43;99482.81;;;25.88;39.05
19594;BME280;9944;48.240;16.478;2023-07-31T12:00:48;99480.34;;;25.97;39.04
19594;BME280;9944;48.240;16.478;2023-07-31T12:04:53;99478.28;;;26.01;39.09
19594;BME280;9944;48.240;16.478;2023-07-31T12:09:01;99465.19;;;25.95;37.82
19594;BME280;9944;48.240;16.478;2023-07-31T12:13:10;99456.78;;;25.87;38.64
19594;BME280;9944;48.240;16.478;2023-07-31T12:17:15;99459.16;;;25.91;38.99
19594;BME280;9944;48.240;16.478;2023-07-31T12:21:20;99444.75;;;25.91;37.50
19594;BME280;9944;48.240;16.478;2023-07-31T12:25:29;99432.50;;;25.98;36.83
19594;BME280;9944;48.240;16.478;2023-07-31T12:29:35;99428.16;;;26.08;37.29
19594;BME280;9944;48.240;16.478;2023-07-31T12:33:43;99434.84;;;26.15;37.54
19594;BME280;9944;48.240;16.478;2023-07-31T12:37:48;99420.63;;;26.25;37.29
19594;BME280;9944;48.240;16.478;2023-07-31T12:41:52;99427.00;;;26.24;37.40
19594;BME280;9944;48.240;16.478;2023-07-31T12:45:56;99417.53;;;26.18;37.39
19594;BME280;9944;48.240;16.478;2023-07-31T12:49:59;99406.59;;;26.20;36.44
19594;BME280;9944;48.240;16.478;2023-07-31T12:54:04;99407.72;;;26.28;36.26
19594;BME280;9944;48.240;16.478;2023-07-31T12:58:08;99392.97;;;26.32;36.51
19594;BME280;9944;48.240;16.478;2023-07-31T13:02:11;99398.06;;;26.37;36.82
19594;BME280;9944;48.240;16.478;2023-07-31T13:06:15;99377.03;;;26.41;36.62
19594;BME280;9944;48.240;16.478;2023-07-31T13:10:22;99384.28;;;26.40;36.52
19594;BME280;9944;48.240;16.478;2023-07-31T13:14:26;99369.75;;;26.41;36.42
19594;BME280;9944;48.240;16.478;2023-07-31T13:18:30;99356.72;;;26.46;36.89
19594;BME280;9944;48.240;16.478;2023-07-31T13:22:34;99364.13;;;26.44;36.98
19594;BME280;9944;48.240;16.478;2023-07-31T13:26:38;99361.06;;;26.49;36.29
19594;BME280;9944;48.240;16.478;2023-07-31T13:30:42;99353.28;;;26.44;36.43
19594;BME280;9944;48.240;16.478;2023-07-31T13:34:46;99342.97;;;26.49;36.21
19594;BME280;9944;48.240;16.478;2023-07-31T13:38:50;99338.28;;;26.51;36.48
19594;BME280;9944;48.240;16.478;2023-07-31T13:42:54;99324.31;;;26.58;36.43
19594;BME280;9944;48.240;16.478;2023-07-31T13:46:58;99329.44;;;26.49;35.90
19594;BME280;9944;48.240;16.478;2023-07-31T13:51:02;99326.22;;;26.44;35.98
19594;BME280;9944;48.240;16.478;2023-07-31T13:55:06;99311.94;;;26.42;36.22
19594;BME280;9944;48.240;16.478;2023-07-31T13:59:12;99313.53;;;26.45;36.72
19594;BME280;9944;48.240;16.478;2023-07-31T14:03:17;99312.06;;;26.52;36.27
19594;BME280;9944;48.240;16.478;2023-07-31T14:07:20;99311.50;;;26.60;36.41
19594;BME280;9944;48.240;16.478;2023-07-31T14:11:24;99306.38;;;26.68;36.03
19594;BME280;9944;48.240;16.478;2023-07-31T14:15:29;99298.47;;;26.76;35.99
19594;BME280;9944;48.240;16.478;2023-07-31T14:19:34;99297.47;;;26.66;35.88
19594;BME280;9944;48.240;16.478;2023-07-31T14:23:38;99287.50;;;26.55;35.49
19594;BME280;9944;48.240;16.478;2023-07-31T14:27:41;99280.47;;;26.52;35.58
19594;BME280;9944;48.240;16.478;2023-07-31T14:31:46;99280.06;;;26.46;35.59
19594;BME280;9944;48.240;16.478;2023-07-31T14:35:50;99283.38;;;26.38;35.54
19594;BME280;9944;48.240;16.478;2023-07-31T14:39:54;99275.84;;;26.30;35.49
19594;BME280;9944;48.240;16.478;2023-07-31T14:43:58;99267.91;;;26.40;36.25
19594;BME280;9944;48.240;16.478;2023-07-31T14:48:03;99252.91;;;26.59;36.63
19594;BME280;9944;48.240;16.478;2023-07-31T14:52:07;99257.97;;;26.74;36.45
19594;BME280;9944;48.240;16.478;2023-07-31T14:56:11;99248.25;;;26.83;36.23
19594;BME280;9944;48.240;16.478;2023-07-31T15:00:15;99243.59;;;26.85;35.71
19594;BME280;9944;48.240;16.478;2023-07-31T15:04:20;99238.16;;;26.85;35.62
19594;BME280;9944;48.240;16.478;2023-07-31T15:08:24;99235.31;;;26.87;35.34
19594;BME280;9944;48.240;16.478;2023-07-31T15:12:27;99228.91;;;26.88;35.17
19594;BME280;9944;48.240;16.478;2023-07-31T15:16:31;99235.81;;;26.81;35.27
19594;BME280;9944;48.240;16.478;2023-07-31T15:20:36;99231.50;;;26.78;35.15
19594;BME280;9944;48.240;16.478;2023-07-31T15:24:40;99228.28;;;26.73;34.78
19594;BME280;9944;48.240;16.478;2023-07-31T15:28:47;99222.28;;;26.69;34.65
19594;BME280;9944;48.240;16.478;2023-07-31T15:32:52;99208.88;;;26.68;35.19
19594;BME280;9944;48.240;16.478;2023-07-31T15:36:57;99204.31;;;26.68;34.06
19594;BME280;9944;48.240;16.478;2023-07-31T15:41:01;99206.91;;;26.70;33.92
19594;BME280;9944;48.240;16.478;2023-07-31T15:45:06;99210.59;;;26.69;33.52
19594;BME280;9944;48.240;16.478;2023-07-31T15:49:10;99213.66;;;26.64;33.61
19594;BME280;9944;48.240;16.478;2023-07-31T15:53:17;99220.00;;;26.52;33.26
19594;BME280;9944;48.240;16.478;2023-07-31T15:57:20;99207.22;;;26.43;34.21
19594;BME280;9944;48.240;16.478;2023-07-31T16:01:24;99218.66;;;26.35;34.37
19594;BME280;9944;48.240;16.478;2023-07-31T16:05:27;99196.38;;;26.31;34.49
19594;BME280;9944;48.240;16.478;2023-07-31T16:09:32;99193.94;;;26.28;34.68
19594;BME280;9944;48.240;16.478;2023-07-31T16:13:36;99190.97;;;26.31;35.10
19594;BME280;9944;48.240;16.478;2023-07-31T16:17:40;99193.53;;;26.33;35.29
19594;BME280;9944;48.240;16.478;2023-07-31T16:21:43;99189.13;;;26.32;35.34
19594;BME280;9944;48.240;16.478;2023-07-31T16:25:48;99182.72;;;26.33;35.23
19594;BME280;9944;48.240;16.478;2023-07-31T16:29:52;99183.00;;;26.30;35.22
19594;BME280;9944;48.240;16.478;2023-07-31T16:33:55;99180.63;;;26.25;34.69
19594;BME280;9944;48.240;16.478;2023-07-31T16:38:00;99178.28;;;26.21;35.01
19594;BME280;9944;48.240;16.478;2023-07-31T16:42:06;99174.84;;;26.18;34.72
19594;BME280;9944;48.240;16.478;2023-07-31T16:46:10;99171.63;;;26.13;35.11
19594;BME280;9944;48.240;16.478;2023-07-31T16:50:14;99167.22;;;26.12;34.95
19594;BME280;9944;48.240;16.478;2023-07-31T16:54:18;99169.16;;;26.10;35.32
19594;BME280;9944;48.240;16.478;2023-07-31T16:58:23;99165.72;;;26.08;35.43
19594;BME280;9944;48.240;16.478;2023-07-31T17:02:26;99163.03;;;26.08;35.57
19594;BME280;9944;48.240;16.478;2023-07-31T17:06:30;99164.75;;;26.09;36.19
19594;BME280;9944;48.240;16.478;2023-07-31T17:10:34;99159.56;;;26.06;36.22
19594;BME280;9944;48.240;16.478;2023-07-31T17:14:39;99152.44;;;26.05;36.79
19594;BME280;9944;48.240;16.478;2023-07-31T17:18:42;99160.69;;;26.04;37.48
19594;BME280;9944;48.240;16.478;2023-07-31T17:22:46;99148.72;;;25.95;37.30
19594;BME280;9944;48.240;16.478;2023-07-31T17:26:50;99149.91;;;25.91;37.57
19594;BME280;9944;48.240;16.478;2023-07-31T17:30:55;99153.84;;;25.87;37.58
19594;BME280;9944;48.240;16.478;2023-07-31T17:34:58;99165.13;;;25.80;37.05
19594;BME280;9944;48.240;16.478;2023-07-31T17:39:02;99164.75;;;25.74;37.35
19594;BME280;9944;48.240;16.478;2023-07-31T17:43:06;99160.69;;;25.68;37.12
19594;BME280;9944;48.240;16.478;2023-07-31T17:47:11;99172.22;;;25.59;37.33
19594;BME280;9944;48.240;16.478;2023-07-31T17:51:15;99168.38;;;25.50;37.64
19594;BME280;9944;48.240;16.478;2023-07-31T17:55:19;99171.63;;;25.42;38.15
19594;BME280;9944;48.240;16.478;2023-07-31T17:59:22;99176.63;;;25.36;38.67
19594;BME280;9944;48.240;16.478;2023-07-31T18:03:27;99177.13;;;25.30;38.72
19594;BME280;9944;48.240;16.478;2023-07-31T18:07:31;99167.72;;;25.22;39.00
19594;BME280;9944;48.240;16.478;2023-07-31T18:11:34;99175.41;;;25.16;39.37
19594;BME280;9944;48.240;16.478;2023-07-31T18:15:43;99171.56;;;25.07;39.68
19594;BME280;9944;48.240;16.478;2023-07-31T18:19:48;99169.41;;;24.99;40.22
19594;BME280;9944;48.240;16.478;2023-07-31T18:23:52;99168.38;;;24.89;40.29
19594;BME280;9944;48.240;16.478;2023-07-31T18:27:58;99158.25;;;24.80;40.61
19594;BME280;9944;48.240;16.478;2023-07-31T18:32:02;99148.13;;;24.71;40.75
19594;BME280;9944;48.240;16.478;2023-07-31T18:36:07;99153.97;;;24.64;41.96
19594;BME280;9944;48.240;16.478;2023-07-31T18:40:11;99159.16;;;24.55;42.14
19594;BME280;9944;48.240;16.478;2023-07-31T18:44:15;99158.81;;;24.46;42.40
19594;BME280;9944;48.240;16.478;2023-07-31T18:48:18;99163.06;;;24.38;43.20
19594;BME280;9944;48.240;16.478;2023-07-31T18:52:23;99162.72;;;24.29;43.23
19594;BME280;9944;48.240;16.478;2023-07-31T18:56:26;99158.63;;;24.24;43.77
19594;BME280;9944;48.240;16.478;2023-07-31T19:00:31;99166.28;;;24.17;44.42
19594;BME280;9944;48.240;16.478;2023-07-31T19:04:35;99166.94;;;24.08;44.78
19594;BME280;9944;48.240;16.478;2023-07-31T19:08:40;99167.56;;;23.99;45.39
19594;BME280;9944;48.240;16.478;2023-07-31T19:12:45;99167.97;;;23.92;45.76
19594;BME280;9944;48.240;16.478;2023-07-31T19:16:50;99160.31;;;23.86;46.32
19594;BME280;9944;48.240;16.478;2023-07-31T19:20:56;99164.28;;;23.81;46.88
19594;BME280;9944;48.240;16.478;2023-07-31T19:25:01;99166.25;;;23.79;46.91
19594;BME280;9944;48.240;16.478;2023-07-31T19:29:05;99162.91;;;23.75;47.65
19594;BME280;9944;48.240;16.478;2023-07-31T19:33:08;99164.06;;;23.71;47.99
19594;BME280;9944;48.240;16.478;2023-07-31T19:37:12;99163.41;;;23.67;48.19
19594;BME280;9944;48.240;16.478;2023-07-31T19:41:17;99158.25;;;23.64;48.58
19594;BME280;9944;48.240;16.478;2023-07-31T19:45:23;99157.47;;;23.62;49.01
19594;BME280;9944;48.240;16.478;2023-07-31T19:49:27;99155.84;;;23.60;49.00
19594;BME280;9944;48.240;16.478;2023-07-31T19:53:30;99158.00;;;23.54;49.51
19594;BME280;9944;48.240;16.478;2023-07-31T19:57:35;99150.13;;;23.51;50.04
19594;BME280;9944;48.240;16.478;2023-07-31T20:01:39;99145.91;;;23.47;50.36
19594;BME280;9944;48.240;16.478;2023-07-31T20:05:42;99140.06;;;23.41;50.24
19594;BME280;9944;48.240;16.478;2023-07-31T20:09:46;99147.59;;;23.35;50.21
19594;BME280;9944;48.240;16.478;2023-07-31T20:13:51;99147.03;;;23.30;50.83
19594;BME280;9944;48.240;16.478;2023-07-31T20:17:55;99148.38;;;23.23;51.71
19594;BME280;9944;48.240;16.478;2023-07-31T20:21:59;99157.94;;;23.14;51.61
19594;BME280;9944;48.240;16.478;2023-07-31T20:26:02;99167.50;;;23.06;52.06
19594;BME280;9944;48.240;16.478;2023-07-31T20:30:08;99164.44;;;22.97;52.59
19594;BME280;9944;48.240;16.478;2023-07-31T20:34:11;99162.03;;;22.93;52.84
19594;BME280;9944;48.240;16.478;2023-07-31T20:38:14;99160.53;;;22.89;53.25
19594;BME280;9944;48.240;16.478;2023-07-31T20:42:18;99154.66;;;22.82;53.25
19594;BME280;9944;48.240;16.478;2023-07-31T20:46:24;99148.63;;;22.78;53.74
19594;BME280;9944;48.240;16.478;2023-07-31T20:50:28;99147.84;;;22.76;53.27
19594;BME280;9944;48.240;16.478;2023-07-31T20:54:33;99141.91;;;22.71;53.74
19594;BME280;9944;48.240;16.478;2023-07-31T20:58:37;99140.16;;;22.70;53.82
19594;BME280;9944;48.240;16.478;2023-07-31T21:02:42;99137.78;;;22.66;54.11
19594;BME280;9944;48.240;16.478;2023-07-31T21:06:46;99136.38;;;22.60;54.37
19594;BME280;9944;48.240;16.478;2023-07-31T21:10:50;99128.69;;;22.54;55.44
19594;BME280;9944;48.240;16.478;2023-07-31T21:14:54;99121.19;;;22.44;54.98
19594;BME280;9944;48.240;16.478;2023-07-31T21:18:59;99123.19;;;22.41;55.62
19594;BME280;9944;48.240;16.478;2023-07-31T21:23:02;99117.91;;;22.39;55.55
19594;BME280;9944;48.240;16.478;2023-07-31T21:27:09;99110.78;;;22.38;55.79
19594;BME280;9944;48.240;16.478;2023-07-31T21:31:14;99105.69;;;22.34;55.85
19594;BME280;9944;48.240;16.478;2023-07-31T21:35:19;99099.66;;;22.30;55.96